This is the latest recevied weather packets stored in our database for station/object EFTU. If no packets are shown the sender has not sent any weather packets the latest 10 day(s).
| Time | Temp. | Humidity | Pressure | Rain* | Wind** | Luminosity | Snow |
|---|---|---|---|---|---|---|---|
| 1777344406 | 0.56° C | 59% | 1021 hPa | - | - | - | - |
| 1777343207 | 0.56° C | 59% | 1021 hPa | - | - | - | - |
| 1777342007 | 0.56° C | 58% | 1020.8 hPa | - | - | - | - |
| 1777340806 | 0.56° C | 59% | 1020.8 hPa | - | - | - | - |
| 1777339606 | 0.56° C | 59% | 1020.7 hPa | - | - | - | - |
| 1777338406 | 0.56° C | 60% | 1020.7 hPa | - | - | - | - |
| 1777337206 | 0.56° C | 63% | 1020.6 hPa | - | - | - | - |
| 1777336006 | 0.56° C | 63% | 1020.7 hPa | - | - | - | - |
| 1777334805 | -0.56° C | 89% | 1015 hPa | - | - | - | - |
| 1777333606 | 1.11° C | 64% | 1020.5 hPa | - | - | - | - |
| 1777332406 | 1.11° C | 64% | 1020.5 hPa | - | - | - | - |
| 1777331205 | 1.11° C | 64% | 1020.4 hPa | - | - | - | - |
| 1777330005 | 1.11° C | 64% | 1020.3 hPa | - | - | - | - |
| 1777328806 | 1.67° C | 64% | 1020.4 hPa | - | - | - | - |
| 1777327606 | 1.67° C | 64% | 1020.3 hPa | - | - | - | - |
| 1777326405 | 1.67° C | 63% | 1020.3 hPa | - | - | - | - |
| 1777325205 | 1.67° C | 63% | 1020.2 hPa | - | - | - | - |
| 1777324006 | 1.67° C | 63% | 1020 hPa | - | - | - | - |
| 1777322806 | 2.22° C | 62% | 1019.9 hPa | - | - | - | - |
| 1777321606 | 2.22° C | 60% | 1019.7 hPa | - | - | - | - |
| 1777320405 | 2.78° C | 58% | 1019.5 hPa | - | - | - | - |
| 1777319204 | 2.78° C | 55% | 1019.4 hPa | - | - | - | - |
| 1777318005 | 3.33° C | 55% | 1019.2 hPa | - | - | - | - |
| 1777316804 | 3.33° C | 54% | 1019 hPa | - | - | - | - |
| 1777315604 | 3.89° C | 50% | 1018.9 hPa | - | - | - | - |
* Rain since midnight (hover to see other rain measurements)
** Current wind speed in m/s (hover to see current wind gust speed)